Terminal Aerodrome Forecast
Issued by NWS Upton, NY

Home | Current Version | Previous Version | Text Only | Print | Product List | Glossary On
Versions: 1 2 3 4 5 6 7 8 9 10 11 12 13 14 15 16 17 18 19 20 21 22 23 24 25 26 27 28 29 30 31
863
FTUS41 KOKX 251132
TAFEWR
TAF
KEWR 251132Z 2512/2618 21005KT P6SM FEW250
     FM251500 22008KT P6SM SCT100 BKN200
     FM252300 25008KT P6SM VCSH SCT040 BKN100 OVC200
     FM260200 29012G18KT P6SM VCSH OVC040
     FM260700 31014G22KT P6SM SCT050
     FM261300 31018G28KT P6SM SCT050=

USA.gov is the U.S. government's official web portal to all federal, state and local government web resources and services.